sensor_id;sensor_type;location;lat;lon;timestamp;P1;durP1;ratioP1;P2;durP2;ratioP2
34926;SDS011;21132;48.308;14.274;2022-10-17T00:00:29;4.90;;;3.47;;
34926;SDS011;21132;48.308;14.274;2022-10-17T00:02:55;7.15;;;4.55;;
34926;SDS011;21132;48.308;14.274;2022-10-17T00:05:21;10.07;;;4.47;;
34926;SDS011;21132;48.308;14.274;2022-10-17T00:07:49;6.85;;;4.60;;
34926;SDS011;21132;48.308;14.274;2022-10-17T00:10:15;6.35;;;4.53;;
34926;SDS011;21132;48.308;14.274;2022-10-17T00:12:41;8.63;;;5.05;;
34926;SDS011;21132;48.308;14.274;2022-10-17T00:15:07;11.63;;;4.90;;
34926;SDS011;21132;48.308;14.274;2022-10-17T00:17:33;8.13;;;5.35;;
34926;SDS011;21132;48.308;14.274;2022-10-17T00:19:59;8.18;;;4.68;;
34926;SDS011;21132;48.308;14.274;2022-10-17T00:22:25;6.53;;;4.18;;
34926;SDS011;21132;48.308;14.274;2022-10-17T00:24:51;14.75;;;5.10;;
34926;SDS011;21132;48.308;14.274;2022-10-17T00:27:20;9.25;;;4.25;;
34926;SDS011;21132;48.308;14.274;2022-10-17T00:29:47;7.25;;;4.88;;
34926;SDS011;21132;48.308;14.274;2022-10-17T00:32:13;8.68;;;5.15;;
34926;SDS011;21132;48.308;14.274;2022-10-17T00:34:39;8.68;;;5.28;;
34926;SDS011;21132;48.308;14.274;2022-10-17T00:37:05;7.53;;;4.80;;
34926;SDS011;21132;48.308;14.274;2022-10-17T00:39:31;6.55;;;4.05;;
34926;SDS011;21132;48.308;14.274;2022-10-17T00:41:57;7.85;;;4.00;;
34926;SDS011;21132;48.308;14.274;2022-10-17T00:46:55;6.63;;;4.43;;
34926;SDS011;21132;48.308;14.274;2022-10-17T00:49:22;6.50;;;4.07;;
34926;SDS011;21132;48.308;14.274;2022-10-17T00:51:54;6.03;;;3.92;;
34926;SDS011;21132;48.308;14.274;2022-10-17T00:54:23;5.80;;;4.50;;
34926;SDS011;21132;48.308;14.274;2022-10-17T00:56:55;7.80;;;4.57;;
34926;SDS011;21132;48.308;14.274;2022-10-17T00:59:22;6.88;;;4.70;;
34926;SDS011;21132;48.308;14.274;2022-10-17T01:02:22;5.57;;;4.45;;
34926;SDS011;21132;48.308;14.274;2022-10-17T01:04:43;8.90;;;4.78;;
34926;SDS011;21132;48.308;14.274;2022-10-17T01:07:11;5.43;;;3.90;;
34926;SDS011;21132;48.308;14.274;2022-10-17T01:09:37;6.32;;;4.22;;
34926;SDS011;21132;48.308;14.274;2022-10-17T01:25:59;11.43;;;4.97;;
34926;SDS011;21132;48.308;14.274;2022-10-17T01:28:49;9.70;;;4.78;;
34926;SDS011;21132;48.308;14.274;2022-10-17T01:31:26;8.10;;;4.45;;
34926;SDS011;21132;48.308;14.274;2022-10-17T01:39:43;5.97;;;4.40;;
34926;SDS011;21132;48.308;14.274;2022-10-17T01:42:22;6.93;;;4.05;;
34926;SDS011;21132;48.308;14.274;2022-10-17T01:47:45;12.18;;;4.45;;
34926;SDS011;21132;48.308;14.274;2022-10-17T01:50:16;6.10;;;3.72;;
34926;SDS011;21132;48.308;14.274;2022-10-17T01:52:57;5.55;;;4.10;;
34926;SDS011;21132;48.308;14.274;2022-10-17T01:55:29;7.05;;;3.28;;
34926;SDS011;21132;48.308;14.274;2022-10-17T01:58:08;5.80;;;4.07;;
34926;SDS011;21132;48.308;14.274;2022-10-17T02:00:41;5.68;;;3.78;;
34926;SDS011;21132;48.308;14.274;2022-10-17T02:03:11;11.23;;;4.25;;
34926;SDS011;21132;48.308;14.274;2022-10-17T02:05:41;6.78;;;4.13;;
34926;SDS011;21132;48.308;14.274;2022-10-17T02:08:08;4.65;;;3.58;;
34926;SDS011;21132;48.308;14.274;2022-10-17T02:10:37;7.78;;;3.47;;
34926;SDS011;21132;48.308;14.274;2022-10-17T02:13:13;6.82;;;4.38;;
34926;SDS011;21132;48.308;14.274;2022-10-17T02:18:32;4.35;;;3.25;;
34926;SDS011;21132;48.308;14.274;2022-10-17T02:21:50;6.78;;;4.00;;
34926;SDS011;21132;48.308;14.274;2022-10-17T02:24:11;6.00;;;4.03;;
34926;SDS011;21132;48.308;14.274;2022-10-17T02:26:48;7.68;;;4.07;;
34926;SDS011;21132;48.308;14.274;2022-10-17T02:29:23;4.40;;;2.97;;
34926;SDS011;21132;48.308;14.274;2022-10-17T02:31:58;5.47;;;3.78;;
34926;SDS011;21132;48.308;14.274;2022-10-17T02:34:38;5.75;;;3.65;;
34926;SDS011;21132;48.308;14.274;2022-10-17T02:37:11;4.38;;;3.00;;
34926;SDS011;21132;48.308;14.274;2022-10-17T02:39:40;4.20;;;3.13;;
34926;SDS011;21132;48.308;14.274;2022-10-17T02:42:09;8.40;;;3.20;;
34926;SDS011;21132;48.308;14.274;2022-10-17T02:44:37;7.18;;;4.45;;
34926;SDS011;21132;48.308;14.274;2022-10-17T02:47:28;6.45;;;3.45;;
34926;SDS011;21132;48.308;14.274;2022-10-17T02:49:56;5.10;;;3.45;;
34926;SDS011;21132;48.308;14.274;2022-10-17T02:55:22;5.18;;;3.40;;
34926;SDS011;21132;48.308;14.274;2022-10-17T02:58:04;6.20;;;4.00;;
34926;SDS011;21132;48.308;14.274;2022-10-17T03:00:34;6.43;;;4.10;;
34926;SDS011;21132;48.308;14.274;2022-10-17T03:03:03;4.93;;;3.40;;
34926;SDS011;21132;48.308;14.274;2022-10-17T03:05:46;5.05;;;3.78;;
34926;SDS011;21132;48.308;14.274;2022-10-17T03:08:11;5.68;;;3.92;;
34926;SDS011;21132;48.308;14.274;2022-10-17T03:10:37;13.13;;;4.68;;
34926;SDS011;21132;48.308;14.274;2022-10-17T03:13:03;6.03;;;4.38;;
34926;SDS011;21132;48.308;14.274;2022-10-17T03:15:28;6.65;;;4.28;;
34926;SDS011;21132;48.308;14.274;2022-10-17T03:17:54;9.07;;;4.57;;
34926;SDS011;21132;48.308;14.274;2022-10-17T03:20:20;7.32;;;4.43;;
34926;SDS011;21132;48.308;14.274;2022-10-17T03:22:46;8.93;;;4.03;;
34926;SDS011;21132;48.308;14.274;2022-10-17T03:25:12;5.55;;;3.80;;
34926;SDS011;21132;48.308;14.274;2022-10-17T03:27:37;8.13;;;5.00;;
34926;SDS011;21132;48.308;14.274;2022-10-17T03:30:03;7.93;;;4.70;;
34926;SDS011;21132;48.308;14.274;2022-10-17T03:32:31;5.72;;;4.05;;
34926;SDS011;21132;48.308;14.274;2022-10-17T03:34:57;16.65;;;4.47;;
34926;SDS011;21132;48.308;14.274;2022-10-17T03:37:23;7.43;;;4.35;;
34926;SDS011;21132;48.308;14.274;2022-10-17T03:39:49;7.40;;;4.28;;
34926;SDS011;21132;48.308;14.274;2022-10-17T03:42:14;8.82;;;4.35;;
34926;SDS011;21132;48.308;14.274;2022-10-17T03:44:40;6.75;;;4.43;;
34926;SDS011;21132;48.308;14.274;2022-10-17T03:47:06;9.52;;;4.60;;
34926;SDS011;21132;48.308;14.274;2022-10-17T03:49:35;8.90;;;4.32;;
34926;SDS011;21132;48.308;14.274;2022-10-17T03:52:01;11.18;;;4.18;;
34926;SDS011;21132;48.308;14.274;2022-10-17T03:54:27;5.68;;;3.58;;
34926;SDS011;21132;48.308;14.274;2022-10-17T03:56:52;4.63;;;3.70;;
34926;SDS011;21132;48.308;14.274;2022-10-17T03:59:18;6.50;;;3.80;;
34926;SDS011;21132;48.308;14.274;2022-10-17T04:01:44;7.82;;;4.93;;
34926;SDS011;21132;48.308;14.274;2022-10-17T04:04:10;5.88;;;4.25;;
34926;SDS011;21132;48.308;14.274;2022-10-17T04:06:36;6.18;;;4.18;;
34926;SDS011;21132;48.308;14.274;2022-10-17T04:09:03;6.35;;;4.05;;
34926;SDS011;21132;48.308;14.274;2022-10-17T04:11:29;8.38;;;3.88;;
34926;SDS011;21132;48.308;14.274;2022-10-17T04:13:56;7.20;;;4.03;;
34926;SDS011;21132;48.308;14.274;2022-10-17T04:16:23;4.68;;;3.30;;
34926;SDS011;21132;48.308;14.274;2022-10-17T04:18:53;5.88;;;3.60;;
34926;SDS011;21132;48.308;14.274;2022-10-17T04:21:20;5.40;;;3.50;;
34926;SDS011;21132;48.308;14.274;2022-10-17T04:23:47;8.02;;;4.18;;
34926;SDS011;21132;48.308;14.274;2022-10-17T04:26:12;6.88;;;4.70;;
34926;SDS011;21132;48.308;14.274;2022-10-17T04:28:38;7.95;;;4.85;;
34926;SDS011;21132;48.308;14.274;2022-10-17T04:31:05;6.00;;;4.00;;
34926;SDS011;21132;48.308;14.274;2022-10-17T04:33:33;7.43;;;4.88;;
34926;SDS011;21132;48.308;14.274;2022-10-17T04:36:00;10.77;;;4.88;;
34926;SDS011;21132;48.308;14.274;2022-10-17T04:38:30;10.25;;;5.97;;
34926;SDS011;21132;48.308;14.274;2022-10-17T04:40:57;8.50;;;4.80;;
34926;SDS011;21132;48.308;14.274;2022-10-17T04:43:30;14.18;;;5.15;;
34926;SDS011;21132;48.308;14.274;2022-10-17T04:46:00;8.68;;;4.90;;
34926;SDS011;21132;48.308;14.274;2022-10-17T04:48:28;8.15;;;4.32;;
34926;SDS011;21132;48.308;14.274;2022-10-17T04:51:13;6.40;;;4.65;;
34926;SDS011;21132;48.308;14.274;2022-10-17T04:53:42;8.43;;;4.72;;
34926;SDS011;21132;48.308;14.274;2022-10-17T04:56:14;8.93;;;4.60;;
34926;SDS011;21132;48.308;14.274;2022-10-17T04:58:41;7.78;;;4.47;;
34926;SDS011;21132;48.308;14.274;2022-10-17T05:01:09;12.63;;;4.75;;
34926;SDS011;21132;48.308;14.274;2022-10-17T05:03:37;6.43;;;3.70;;
34926;SDS011;21132;48.308;14.274;2022-10-17T05:06:07;7.63;;;4.55;;
34926;SDS011;21132;48.308;14.274;2022-10-17T05:08:35;7.63;;;4.60;;
34926;SDS011;21132;48.308;14.274;2022-10-17T05:11:01;12.23;;;5.43;;
34926;SDS011;21132;48.308;14.274;2022-10-17T05:13:27;9.27;;;5.45;;
34926;SDS011;21132;48.308;14.274;2022-10-17T05:15:57;12.52;;;5.93;;
34926;SDS011;21132;48.308;14.274;2022-10-17T05:18:29;10.15;;;5.43;;
34926;SDS011;21132;48.308;14.274;2022-10-17T05:20:55;6.72;;;4.70;;
34926;SDS011;21132;48.308;14.274;2022-10-17T05:23:21;20.25;;;6.22;;
34926;SDS011;21132;48.308;14.274;2022-10-17T05:25:47;8.98;;;6.07;;
34926;SDS011;21132;48.308;14.274;2022-10-17T05:28:17;11.70;;;6.28;;
34926;SDS011;21132;48.308;14.274;2022-10-17T05:30:43;9.13;;;6.60;;
34926;SDS011;21132;48.308;14.274;2022-10-17T05:33:09;14.85;;;8.50;;
34926;SDS011;21132;48.308;14.274;2022-10-17T05:35:34;13.80;;;7.63;;
34926;SDS011;21132;48.308;14.274;2022-10-17T05:38:00;11.80;;;7.32;;
34926;SDS011;21132;48.308;14.274;2022-10-17T05:40:26;11.52;;;7.40;;
34926;SDS011;21132;48.308;14.274;2022-10-17T05:42:52;11.15;;;7.25;;
34926;SDS011;21132;48.308;14.274;2022-10-17T05:45:18;15.30;;;8.00;;
34926;SDS011;21132;48.308;14.274;2022-10-17T05:47:43;16.60;;;9.38;;
34926;SDS011;21132;48.308;14.274;2022-10-17T05:50:10;18.60;;;9.15;;
34926;SDS011;21132;48.308;14.274;2022-10-17T05:52:36;23.52;;;12.07;;
34926;SDS011;21132;48.308;14.274;2022-10-17T05:55:03;27.17;;;13.20;;
34926;SDS011;21132;48.308;14.274;2022-10-17T05:57:29;49.55;;;23.65;;
34926;SDS011;21132;48.308;14.274;2022-10-17T05:59:55;73.32;;;32.00;;
34926;SDS011;21132;48.308;14.274;2022-10-17T06:02:21;92.75;;;38.28;;
34926;SDS011;21132;48.308;14.274;2022-10-17T06:04:51;105.38;;;40.15;;
34926;SDS011;21132;48.308;14.274;2022-10-17T06:07:16;87.93;;;36.25;;
34926;SDS011;21132;48.308;14.274;2022-10-17T06:09:42;84.72;;;35.53;;
34926;SDS011;21132;48.308;14.274;2022-10-17T06:12:08;70.88;;;31.25;;
34926;SDS011;21132;48.308;14.274;2022-10-17T06:14:36;64.90;;;31.58;;
34926;SDS011;21132;48.308;14.274;2022-10-17T06:17:02;84.30;;;36.97;;
34926;SDS011;21132;48.308;14.274;2022-10-17T06:19:28;80.75;;;38.28;;
34926;SDS011;21132;48.308;14.274;2022-10-17T06:21:54;95.60;;;44.30;;
34926;SDS011;21132;48.308;14.274;2022-10-17T06:24:20;97.32;;;45.70;;
34926;SDS011;21132;48.308;14.274;2022-10-17T06:26:45;108.53;;;45.03;;
34926;SDS011;21132;48.308;14.274;2022-10-17T06:29:13;122.68;;;46.25;;
34926;SDS011;21132;48.308;14.274;2022-10-17T06:31:39;106.03;;;43.92;;
34926;SDS011;21132;48.308;14.274;2022-10-17T06:34:05;93.85;;;38.80;;
34926;SDS011;21132;48.308;14.274;2022-10-17T06:36:31;76.72;;;34.00;;
34926;SDS011;21132;48.308;14.274;2022-10-17T06:39:00;90.90;;;34.65;;
34926;SDS011;21132;48.308;14.274;2022-10-17T06:41:28;81.20;;;32.80;;
34926;SDS011;21132;48.308;14.274;2022-10-17T06:43:56;83.82;;;30.58;;
34926;SDS011;21132;48.308;14.274;2022-10-17T06:46:21;61.50;;;25.13;;
34926;SDS011;21132;48.308;14.274;2022-10-17T06:48:50;68.30;;;27.58;;
34926;SDS011;21132;48.308;14.274;2022-10-17T06:51:16;58.25;;;25.15;;
34926;SDS011;21132;48.308;14.274;2022-10-17T06:53:42;68.32;;;27.05;;
34926;SDS011;21132;48.308;14.274;2022-10-17T06:56:08;66.68;;;26.17;;
34926;SDS011;21132;48.308;14.274;2022-10-17T06:58:35;63.40;;;25.17;;
34926;SDS011;21132;48.308;14.274;2022-10-17T07:01:07;77.70;;;28.92;;
34926;SDS011;21132;48.308;14.274;2022-10-17T07:03:35;78.32;;;32.72;;
34926;SDS011;21132;48.308;14.274;2022-10-17T07:06:01;85.60;;;33.15;;
34926;SDS011;21132;48.308;14.274;2022-10-17T07:08:28;71.50;;;30.02;;
34926;SDS011;21132;48.308;14.274;2022-10-17T07:10:54;68.10;;;30.08;;
34926;SDS011;21132;48.308;14.274;2022-10-17T07:13:20;91.35;;;39.22;;
34926;SDS011;21132;48.308;14.274;2022-10-17T07:15:49;78.75;;;38.22;;
34926;SDS011;21132;48.308;14.274;2022-10-17T07:18:15;89.32;;;43.20;;
34926;SDS011;21132;48.308;14.274;2022-10-17T07:20:41;98.65;;;44.67;;
34926;SDS011;21132;48.308;14.274;2022-10-17T07:23:07;113.80;;;52.33;;
34926;SDS011;21132;48.308;14.274;2022-10-17T07:25:32;112.20;;;53.33;;
34926;SDS011;21132;48.308;14.274;2022-10-17T07:28:00;102.80;;;49.28;;
34926;SDS011;21132;48.308;14.274;2022-10-17T07:30:26;95.97;;;45.75;;
34926;SDS011;21132;48.308;14.274;2022-10-17T07:32:52;89.03;;;47.25;;
34926;SDS011;21132;48.308;14.274;2022-10-17T07:35:18;96.50;;;48.60;;
34926;SDS011;21132;48.308;14.274;2022-10-17T07:37:45;117.22;;;54.92;;
34926;SDS011;21132;48.308;14.274;2022-10-17T07:40:11;124.55;;;57.00;;
34926;SDS011;21132;48.308;14.274;2022-10-17T07:42:37;144.40;;;64.45;;
34926;SDS011;21132;48.308;14.274;2022-10-17T07:45:03;147.13;;;62.75;;
34926;SDS011;21132;48.308;14.274;2022-10-17T07:47:32;147.95;;;67.20;;
34926;SDS011;21132;48.308;14.274;2022-10-17T07:50:00;151.00;;;66.05;;
34926;SDS011;21132;48.308;14.274;2022-10-17T07:52:26;147.20;;;65.95;;
34926;SDS011;21132;48.308;14.274;2022-10-17T07:54:52;146.98;;;65.53;;
34926;SDS011;21132;48.308;14.274;2022-10-17T07:57:18;153.15;;;66.45;;
34926;SDS011;21132;48.308;14.274;2022-10-17T07:59:43;145.00;;;65.43;;
34926;SDS011;21132;48.308;14.274;2022-10-17T08:02:17;147.88;;;66.97;;
34926;SDS011;21132;48.308;14.274;2022-10-17T08:04:48;139.68;;;64.72;;
34926;SDS011;21132;48.308;14.274;2022-10-17T08:07:14;125.43;;;59.72;;
34926;SDS011;21132;48.308;14.274;2022-10-17T08:09:43;132.10;;;59.28;;
34926;SDS011;21132;48.308;14.274;2022-10-17T08:12:10;147.90;;;65.00;;
34926;SDS011;21132;48.308;14.274;2022-10-17T08:14:38;144.82;;;64.68;;
34926;SDS011;21132;48.308;14.274;2022-10-17T08:17:04;141.40;;;64.25;;
34926;SDS011;21132;48.308;14.274;2022-10-17T08:19:32;136.63;;;60.45;;
34926;SDS011;21132;48.308;14.274;2022-10-17T08:21:58;133.00;;;58.70;;
34926;SDS011;21132;48.308;14.274;2022-10-17T08:24:26;131.60;;;60.70;;
34926;SDS011;21132;48.308;14.274;2022-10-17T08:26:52;138.77;;;61.15;;
34926;SDS011;21132;48.308;14.274;2022-10-17T08:29:20;142.27;;;63.25;;
34926;SDS011;21132;48.308;14.274;2022-10-17T08:31:46;151.35;;;66.18;;
34926;SDS011;21132;48.308;14.274;2022-10-17T08:34:15;154.30;;;64.95;;
34926;SDS011;21132;48.308;14.274;2022-10-17T08:36:41;143.10;;;66.22;;
34926;SDS011;21132;48.308;14.274;2022-10-17T08:39:10;153.93;;;67.95;;
34926;SDS011;21132;48.308;14.274;2022-10-17T08:41:51;147.82;;;66.30;;
34926;SDS011;21132;48.308;14.274;2022-10-17T08:46:58;137.32;;;64.68;;
34926;SDS011;21132;48.308;14.274;2022-10-17T08:52:10;130.07;;;60.53;;
34926;SDS011;21132;48.308;14.274;2022-10-17T08:54:58;123.32;;;61.05;;
34926;SDS011;21132;48.308;14.274;2022-10-17T08:57:24;127.95;;;61.05;;
34926;SDS011;21132;48.308;14.274;2022-10-17T08:59:53;122.55;;;61.22;;
34926;SDS011;21132;48.308;14.274;2022-10-17T09:08:32;108.82;;;56.05;;
34926;SDS011;21132;48.308;14.274;2022-10-17T09:22:17;75.68;;;42.63;;
34926;SDS011;21132;48.308;14.274;2022-10-17T09:24:52;70.18;;;39.78;;
34926;SDS011;21132;48.308;14.274;2022-10-17T09:27:26;69.70;;;39.92;;
34926;SDS011;21132;48.308;14.274;2022-10-17T09:30:21;67.38;;;40.88;;
34926;SDS011;21132;48.308;14.274;2022-10-17T09:35:40;62.88;;;38.45;;
34926;SDS011;21132;48.308;14.274;2022-10-17T09:38:12;59.70;;;37.35;;
34926;SDS011;21132;48.308;14.274;2022-10-17T09:40:45;51.63;;;34.22;;
34926;SDS011;21132;48.308;14.274;2022-10-17T09:43:21;48.65;;;32.55;;
34926;SDS011;21132;48.308;14.274;2022-10-17T09:46:00;56.35;;;35.83;;
34926;SDS011;21132;48.308;14.274;2022-10-17T09:48:54;55.53;;;33.78;;
34926;SDS011;21132;48.308;14.274;2022-10-17T09:51:42;60.78;;;36.60;;
34926;SDS011;21132;48.308;14.274;2022-10-17T09:54:19;52.15;;;34.47;;
34926;SDS011;21132;48.308;14.274;2022-10-17T09:57:00;60.60;;;37.00;;
34926;SDS011;21132;48.308;14.274;2022-10-17T09:59:35;63.63;;;35.00;;
34926;SDS011;21132;48.308;14.274;2022-10-17T10:02:22;54.45;;;33.85;;
34926;SDS011;21132;48.308;14.274;2022-10-17T10:04:53;49.28;;;32.45;;
34926;SDS011;21132;48.308;14.274;2022-10-17T10:08:02;47.17;;;30.33;;
34926;SDS011;21132;48.308;14.274;2022-10-17T10:10:37;53.63;;;34.28;;
34926;SDS011;21132;48.308;14.274;2022-10-17T10:15:40;45.33;;;31.55;;
34926;SDS011;21132;48.308;14.274;2022-10-17T10:21:02;69.63;;;42.90;;
34926;SDS011;21132;48.308;14.274;2022-10-17T10:23:28;67.60;;;40.88;;
34926;SDS011;21132;48.308;14.274;2022-10-17T10:25:54;71.38;;;44.63;;
34926;SDS011;21132;48.308;14.274;2022-10-17T10:28:24;64.03;;;41.53;;
34926;SDS011;21132;48.308;14.274;2022-10-17T10:30:52;68.47;;;41.63;;
34926;SDS011;21132;48.308;14.274;2022-10-17T10:33:20;73.82;;;46.35;;
34926;SDS011;21132;48.308;14.274;2022-10-17T10:35:53;73.95;;;45.95;;
34926;SDS011;21132;48.308;14.274;2022-10-17T10:38:21;74.75;;;43.97;;
34926;SDS011;21132;48.308;14.274;2022-10-17T10:40:54;72.32;;;44.83;;
34926;SDS011;21132;48.308;14.274;2022-10-17T10:48:54;70.32;;;45.92;;
34926;SDS011;21132;48.308;14.274;2022-10-17T10:51:29;78.15;;;47.50;;
34926;SDS011;21132;48.308;14.274;2022-10-17T10:54:05;83.88;;;51.50;;
34926;SDS011;21132;48.308;14.274;2022-10-17T10:56:37;79.17;;;50.30;;
34926;SDS011;21132;48.308;14.274;2022-10-17T11:04:38;82.68;;;49.25;;
34926;SDS011;21132;48.308;14.274;2022-10-17T11:07:21;80.63;;;51.67;;
34926;SDS011;21132;48.308;14.274;2022-10-17T11:09:57;74.10;;;49.83;;
34926;SDS011;21132;48.308;14.274;2022-10-17T11:12:32;83.38;;;51.75;;
34926;SDS011;21132;48.308;14.274;2022-10-17T11:15:20;85.40;;;52.53;;
34926;SDS011;21132;48.308;14.274;2022-10-17T11:17:59;80.68;;;50.80;;
34926;SDS011;21132;48.308;14.274;2022-10-17T11:23:13;75.82;;;47.65;;
34926;SDS011;21132;48.308;14.274;2022-10-17T11:25:45;73.13;;;47.78;;
34926;SDS011;21132;48.308;14.274;2022-10-17T11:28:15;76.93;;;47.90;;
34926;SDS011;21132;48.308;14.274;2022-10-17T11:33:24;80.00;;;51.67;;
34926;SDS011;21132;48.308;14.274;2022-10-17T11:35:58;80.97;;;52.90;;
34926;SDS011;21132;48.308;14.274;2022-10-17T11:41:38;81.20;;;51.10;;
34926;SDS011;21132;48.308;14.274;2022-10-17T11:46:50;87.05;;;54.53;;
34926;SDS011;21132;48.308;14.274;2022-10-17T11:49:23;83.47;;;52.55;;
34926;SDS011;21132;48.308;14.274;2022-10-17T11:51:56;76.18;;;49.78;;
34926;SDS011;21132;48.308;14.274;2022-10-17T11:54:37;75.40;;;48.55;;
34926;SDS011;21132;48.308;14.274;2022-10-17T11:57:19;80.53;;;51.50;;
34926;SDS011;21132;48.308;14.274;2022-10-17T12:05:42;73.93;;;46.20;;
34926;SDS011;21132;48.308;14.274;2022-10-17T12:08:37;65.40;;;43.10;;
34926;SDS011;21132;48.308;14.274;2022-10-17T12:11:26;79.18;;;47.03;;
34926;SDS011;21132;48.308;14.274;2022-10-17T12:14:08;71.88;;;45.20;;
34926;SDS011;21132;48.308;14.274;2022-10-17T12:19:24;72.38;;;43.88;;
34926;SDS011;21132;48.308;14.274;2022-10-17T12:21:53;69.70;;;43.63;;
34926;SDS011;21132;48.308;14.274;2022-10-17T12:24:39;65.18;;;40.97;;
34926;SDS011;21132;48.308;14.274;2022-10-17T12:27:59;60.20;;;41.20;;
34926;SDS011;21132;48.308;14.274;2022-10-17T12:29:58;66.45;;;40.97;;
34926;SDS011;21132;48.308;14.274;2022-10-17T12:32:36;66.18;;;39.63;;
34926;SDS011;21132;48.308;14.274;2022-10-17T12:35:20;63.58;;;40.15;;
34926;SDS011;21132;48.308;14.274;2022-10-17T12:51:03;70.53;;;38.47;;
34926;SDS011;21132;48.308;14.274;2022-10-17T12:56:10;53.60;;;35.80;;
34926;SDS011;21132;48.308;14.274;2022-10-17T12:58:39;53.88;;;35.78;;
34926;SDS011;21132;48.308;14.274;2022-10-17T13:01:13;58.08;;;35.17;;
34926;SDS011;21132;48.308;14.274;2022-10-17T13:03:49;56.85;;;35.47;;
34926;SDS011;21132;48.308;14.274;2022-10-17T13:06:21;58.78;;;36.35;;
34926;SDS011;21132;48.308;14.274;2022-10-17T13:08:56;54.63;;;33.83;;
34926;SDS011;21132;48.308;14.274;2022-10-17T13:11:26;50.03;;;34.53;;
34926;SDS011;21132;48.308;14.274;2022-10-17T13:13:55;50.30;;;34.33;;
34926;SDS011;21132;48.308;14.274;2022-10-17T13:16:30;53.35;;;33.13;;
34926;SDS011;21132;48.308;14.274;2022-10-17T13:19:11;54.15;;;33.63;;
34926;SDS011;21132;48.308;14.274;2022-10-17T13:27:01;47.40;;;32.85;;
34926;SDS011;21132;48.308;14.274;2022-10-17T13:29:28;46.58;;;31.30;;
34926;SDS011;21132;48.308;14.274;2022-10-17T13:31:59;47.10;;;31.25;;
34926;SDS011;21132;48.308;14.274;2022-10-17T13:34:30;49.88;;;33.97;;
34926;SDS011;21132;48.308;14.274;2022-10-17T13:37:00;50.13;;;33.47;;
34926;SDS011;21132;48.308;14.274;2022-10-17T13:39:37;64.40;;;35.25;;
34926;SDS011;21132;48.308;14.274;2022-10-17T13:42:24;57.17;;;32.63;;
34926;SDS011;21132;48.308;14.274;2022-10-17T13:44:54;49.08;;;32.90;;
34926;SDS011;21132;48.308;14.274;2022-10-17T13:47:27;44.38;;;29.50;;
34926;SDS011;21132;48.308;14.274;2022-10-17T13:49:55;43.83;;;29.10;;
34926;SDS011;21132;48.308;14.274;2022-10-17T13:52:23;44.55;;;30.17;;
34926;SDS011;21132;48.308;14.274;2022-10-17T13:54:52;46.25;;;30.83;;
34926;SDS011;21132;48.308;14.274;2022-10-17T13:59:52;41.80;;;29.25;;
34926;SDS011;21132;48.308;14.274;2022-10-17T14:02:30;42.97;;;28.05;;
34926;SDS011;21132;48.308;14.274;2022-10-17T14:04:59;45.20;;;28.45;;
34926;SDS011;21132;48.308;14.274;2022-10-17T14:10:19;47.70;;;26.58;;
34926;SDS011;21132;48.308;14.274;2022-10-17T14:12:51;39.47;;;27.00;;
34926;SDS011;21132;48.308;14.274;2022-10-17T14:15:18;36.17;;;26.33;;
34926;SDS011;21132;48.308;14.274;2022-10-17T14:17:52;44.63;;;27.25;;
34926;SDS011;21132;48.308;14.274;2022-10-17T14:20:29;48.85;;;28.38;;
34926;SDS011;21132;48.308;14.274;2022-10-17T14:22:56;48.17;;;28.27;;
34926;SDS011;21132;48.308;14.274;2022-10-17T14:25:28;42.20;;;26.50;;
34926;SDS011;21132;48.308;14.274;2022-10-17T14:28:11;44.22;;;24.77;;
34926;SDS011;21132;48.308;14.274;2022-10-17T14:30:45;42.08;;;25.33;;
34926;SDS011;21132;48.308;14.274;2022-10-17T14:33:14;34.45;;;25.10;;
34926;SDS011;21132;48.308;14.274;2022-10-17T14:35:52;41.58;;;23.88;;
34926;SDS011;21132;48.308;14.274;2022-10-17T14:38:19;40.03;;;26.67;;
34926;SDS011;21132;48.308;14.274;2022-10-17T14:40:50;42.72;;;26.40;;
34926;SDS011;21132;48.308;14.274;2022-10-17T14:43:19;37.17;;;25.20;;
34926;SDS011;21132;48.308;14.274;2022-10-17T14:45:48;39.33;;;25.92;;
34926;SDS011;21132;48.308;14.274;2022-10-17T14:48:16;51.95;;;26.33;;
34926;SDS011;21132;48.308;14.274;2022-10-17T14:54:23;41.17;;;27.13;;
34926;SDS011;21132;48.308;14.274;2022-10-17T14:56:48;46.40;;;28.02;;
34926;SDS011;21132;48.308;14.274;2022-10-17T14:59:16;46.42;;;27.98;;
34926;SDS011;21132;48.308;14.274;2022-10-17T15:01:46;41.97;;;26.20;;
34926;SDS011;21132;48.308;14.274;2022-10-17T15:04:13;44.38;;;26.05;;
34926;SDS011;21132;48.308;14.274;2022-10-17T15:06:40;41.17;;;26.98;;
34926;SDS011;21132;48.308;14.274;2022-10-17T15:09:06;39.33;;;26.75;;
34926;SDS011;21132;48.308;14.274;2022-10-17T15:11:32;52.08;;;28.83;;
34926;SDS011;21132;48.308;14.274;2022-10-17T15:13:57;44.35;;;27.63;;
34926;SDS011;21132;48.308;14.274;2022-10-17T15:16:29;46.10;;;27.70;;
34926;SDS011;21132;48.308;14.274;2022-10-17T15:18:58;41.63;;;27.73;;
34926;SDS011;21132;48.308;14.274;2022-10-17T15:21:26;46.83;;;28.27;;
34926;SDS011;21132;48.308;14.274;2022-10-17T15:23:55;41.75;;;27.75;;
34926;SDS011;21132;48.308;14.274;2022-10-17T15:26:28;47.95;;;28.95;;
34926;SDS011;21132;48.308;14.274;2022-10-17T15:28:55;49.17;;;29.25;;
34926;SDS011;21132;48.308;14.274;2022-10-17T15:31:22;40.60;;;26.08;;
34926;SDS011;21132;48.308;14.274;2022-10-17T15:33:49;47.00;;;29.23;;
34926;SDS011;21132;48.308;14.274;2022-10-17T15:36:26;49.58;;;29.25;;
34926;SDS011;21132;48.308;14.274;2022-10-17T15:38:55;49.40;;;29.73;;
34926;SDS011;21132;48.308;14.274;2022-10-17T15:41:25;45.50;;;27.98;;
34926;SDS011;21132;48.308;14.274;2022-10-17T15:43:54;47.17;;;28.95;;
34926;SDS011;21132;48.308;14.274;2022-10-17T15:46:21;44.92;;;28.33;;
34926;SDS011;21132;48.308;14.274;2022-10-17T15:48:49;48.30;;;27.17;;
34926;SDS011;21132;48.308;14.274;2022-10-17T15:51:15;43.97;;;28.13;;
34926;SDS011;21132;48.308;14.274;2022-10-17T15:53:41;43.40;;;28.60;;
34926;SDS011;21132;48.308;14.274;2022-10-17T15:56:07;46.33;;;28.80;;
34926;SDS011;21132;48.308;14.274;2022-10-17T15:58:45;37.00;;;24.92;;
34926;SDS011;21132;48.308;14.274;2022-10-17T16:01:15;39.65;;;26.35;;
34926;SDS011;21132;48.308;14.274;2022-10-17T16:03:44;41.60;;;26.35;;
34926;SDS011;21132;48.308;14.274;2022-10-17T16:06:12;43.92;;;27.63;;
34926;SDS011;21132;48.308;14.274;2022-10-17T16:08:38;45.42;;;26.20;;
34926;SDS011;21132;48.308;14.274;2022-10-17T16:11:04;46.28;;;26.90;;
34926;SDS011;21132;48.308;14.274;2022-10-17T16:13:33;38.83;;;25.65;;
34926;SDS011;21132;48.308;14.274;2022-10-17T16:15:58;38.17;;;23.98;;
34926;SDS011;21132;48.308;14.274;2022-10-17T16:18:24;39.08;;;24.65;;
34926;SDS011;21132;48.308;14.274;2022-10-17T16:20:50;38.90;;;24.65;;
34926;SDS011;21132;48.308;14.274;2022-10-17T16:23:16;40.58;;;24.30;;
34926;SDS011;21132;48.308;14.274;2022-10-17T16:25:42;41.55;;;23.92;;
34926;SDS011;21132;48.308;14.274;2022-10-17T16:28:08;39.20;;;23.88;;
34926;SDS011;21132;48.308;14.274;2022-10-17T16:30:37;40.78;;;25.77;;
34926;SDS011;21132;48.308;14.274;2022-10-17T16:33:10;44.55;;;28.67;;
34926;SDS011;21132;48.308;14.274;2022-10-17T16:35:36;41.38;;;26.98;;